Time;durP1;ratioP1;P1;durP2;ratioP2;P2;SDS_P1;SDS_P2;PMS_P1;PMS_P2;Temp;Humidity;BMP_temperature;BMP_pressure;BME280_temperature;BME280_humidity;BME280_pressure;Samples;Min_cycle;Max_cycle;Signal;HPM_P1;HPM_P2
2022/01/03 00:00:17;;;;;;;7.65;3.15;;;;;;;9.48;100.00;99912.34;5046362;28;20084;-62
2022/01/03 00:02:45;;;;;;;6.47;3.88;;;;;;;9.45;99.94;99911.69;5050225;28;20128;-63
2022/01/03 00:05:12;;;;;;;6.18;3.67;;;;;;;9.46;100.00;99911.63;5042515;28;20041;-63
2022/01/03 00:07:43;;;;;;;7.80;3.45;;;;;;;9.42;100.00;99897.00;5052040;28;20059;-63
2022/01/03 00:10:11;;;;;;;7.18;3.55;;;;;;;9.36;100.00;99894.75;5048506;28;20060;-62
2022/01/03 00:12:39;;;;;;;7.30;3.75;;;;;;;9.47;100.00;99894.91;5053083;28;20052;-63
2022/01/03 00:15:09;;;;;;;7.88;3.80;;;;;;;9.48;99.99;99886.06;5044347;28;20063;-63
2022/01/03 00:17:37;;;;;;;8.63;3.42;;;;;;;9.45;100.00;99882.81;5030937;28;20091;-62
2022/01/03 00:20:06;;;;;;;9.35;3.90;;;;;;;9.36;100.00;99882.47;5044236;28;20049;-63
2022/01/03 00:22:40;;;;;;;4.47;2.80;;;;;;;9.43;100.00;99882.91;5048729;28;20650;-62
2022/01/03 00:25:16;;;;;;;6.15;3.40;;;;;;;9.45;100.00;99877.53;5047814;28;20045;-63
2022/01/03 00:27:49;;;;;;;8.02;3.85;;;;;;;9.47;99.91;99870.41;5045674;28;20049;-63
2022/01/03 00:30:19;;;;;;;6.35;3.17;;;;;;;9.44;99.80;99858.31;5044788;28;20067;-63
2022/01/03 00:32:48;;;;;;;8.52;3.55;;;;;;;9.45;100.00;99860.00;5051814;28;20052;-63
2022/01/03 00:35:15;;;;;;;8.57;3.10;;;;;;;9.48;99.60;99851.09;5045313;28;20041;-63
2022/01/03 00:37:45;;;;;;;8.27;3.25;;;;;;;9.54;100.00;99859.38;5047813;28;20060;-63
2022/01/03 00:40:20;;;;;;;5.60;3.22;;;;;;;9.44;100.00;99852.22;5047590;28;20421;-63
2022/01/03 00:42:47;;;;;;;8.13;3.03;;;;;;;9.30;100.00;99856.59;5052135;28;20200;-63
2022/01/03 00:45:14;;;;;;;9.52;3.83;;;;;;;9.29;100.00;99851.47;5027654;28;20068;-63
2022/01/03 00:47:41;;;;;;;6.50;3.15;;;;;;;9.25;100.00;99844.72;5047234;28;20177;-63
2022/01/03 00:50:12;;;;;;;5.95;3.42;;;;;;;9.22;100.00;99840.50;5040540;28;20057;-63
2022/01/03 00:52:40;;;;;;;4.15;2.78;;;;;;;9.26;100.00;99852.50;5048145;28;20118;-63
2022/01/03 00:55:08;;;;;;;7.20;3.42;;;;;;;9.30;100.00;99848.72;5053753;28;20059;-63
2022/01/03 00:58:02;;;;;;;7.78;3.53;;;;;;;9.29;100.00;99846.22;5049454;28;22286;-63
2022/01/03 01:00:32;;;;;;;5.70;2.65;;;;;;;9.29;100.00;99854.94;5032861;28;20065;-63
2022/01/03 01:03:15;;;;;;;5.47;3.25;;;;;;;9.27;100.00;99851.53;5029060;28;20061;-63
2022/01/03 01:05:48;;;;;;;7.43;3.08;;;;;;;9.25;100.00;99847.34;5029728;28;20488;-63
2022/01/03 01:08:20;;;;;;;7.68;2.80;;;;;;;9.29;100.00;99847.06;5045419;28;20053;-63
2022/01/03 01:10:50;;;;;;;8.23;3.30;;;;;;;9.21;100.00;99840.63;5027490;28;20055;-63
2022/01/03 01:13:19;;;;;;;4.47;2.75;;;;;;;9.23;100.00;99834.34;5024945;28;20574;-63
2022/01/03 01:15:46;;;;;;;5.80;4.07;;;;;;;9.15;100.00;99833.16;5045304;28;20041;-63
2022/01/03 01:18:13;;;;;;;7.53;2.83;;;;;;;9.15;100.00;99851.53;5042020;28;20386;-63
2022/01/03 01:20:41;;;;;;;5.90;3.00;;;;;;;9.12;100.00;99856.03;5049230;28;20148;-62
2022/01/03 01:23:09;;;;;;;5.70;2.63;;;;;;;9.17;100.00;99831.25;5046278;28;20067;-63
2022/01/03 01:28:06;;;;;;;4.25;2.65;;;;;;;9.08;100.00;99820.41;5045967;28;20061;-63
2022/01/03 01:30:34;;;;;;;5.75;2.22;;;;;;;9.06;100.00;99816.22;5045562;28;20056;-63
2022/01/03 01:33:03;;;;;;;7.28;2.83;;;;;;;9.04;100.00;99813.66;5046763;28;20136;-63
2022/01/03 01:35:42;;;;;;;5.00;2.15;;;;;;;9.00;100.00;99809.56;5044725;28;20707;-63
2022/01/03 01:38:13;;;;;;;6.10;2.58;;;;;;;8.97;100.00;99801.91;5031317;28;20068;-63
2022/01/03 01:40:52;;;;;;;4.38;2.25;;;;;;;9.04;100.00;99803.16;5027732;28;20041;-63
2022/01/03 01:43:25;;;;;;;6.70;2.33;;;;;;;8.93;100.00;99796.94;5043304;28;20175;-63
2022/01/03 01:45:52;;;;;;;3.78;2.00;;;;;;;8.92;100.00;99784.78;5051202;28;20051;-63
2022/01/03 01:48:23;;;;;;;5.78;2.10;;;;;;;8.88;100.00;99792.84;5045009;28;20094;-63
2022/01/03 01:50:51;;;;;;;7.93;3.20;;;;;;;8.97;100.00;99785.31;5048301;28;20436;-63
2022/01/03 01:53:22;;;;;;;7.03;2.10;;;;;;;9.03;100.00;99779.66;5050384;28;20053;-63
2022/01/03 01:55:52;;;;;;;4.72;2.25;;;;;;;9.00;100.00;99761.47;5046880;28;20052;-63
2022/01/03 01:58:50;;;;;;;4.57;2.13;;;;;;;8.93;100.00;99771.53;5044814;28;20087;-63
2022/01/03 02:01:19;;;;;;;6.68;2.85;;;;;;;8.94;100.00;99764.50;5032528;28;20151;-63
2022/01/03 02:03:53;;;;;;;5.65;2.50;;;;;;;8.97;100.00;99778.28;5026024;28;20068;-63
2022/01/03 02:06:20;;;;;;;4.47;2.25;;;;;;;8.90;100.00;99786.66;5028397;28;20148;-63
2022/01/03 02:09:07;;;;;;;4.90;2.22;;;;;;;8.83;100.00;99776.56;5050321;28;20513;-63
2022/01/03 02:11:51;;;;;;;3.38;1.90;;;;;;;8.80;100.00;99782.00;5046366;28;20076;-63
2022/01/03 02:14:20;;;;;;;9.23;2.95;;;;;;;8.65;100.00;99772.50;5039012;28;20564;-63
2022/01/03 02:16:48;;;;;;;5.90;2.15;;;;;;;8.75;100.00;99770.13;5046439;28;20563;-64
2022/01/03 02:19:15;;;;;;;3.05;1.90;;;;;;;8.79;100.00;99768.97;5044431;28;20421;-62
2022/01/03 02:21:43;;;;;;;5.13;2.17;;;;;;;8.78;100.00;99767.28;5045574;28;20041;-64
2022/01/03 02:24:10;;;;;;;3.33;1.73;;;;;;;8.80;100.00;99770.66;5048841;28;20063;-63
2022/01/03 02:26:38;;;;;;;4.82;1.50;;;;;;;8.74;100.00;99764.03;5049089;28;20068;-63
2022/01/03 02:29:05;;;;;;;7.15;1.70;;;;;;;8.72;100.00;99771.16;5036733;28;20141;-63
2022/01/03 02:31:33;;;;;;;4.15;1.63;;;;;;;8.74;100.00;99763.19;5051704;28;20143;-63
2022/01/03 02:34:01;;;;;;;3.30;1.52;;;;;;;8.70;100.00;99753.84;5045793;28;20113;-63
2022/01/03 02:36:30;;;;;;;3.88;1.67;;;;;;;8.69;100.00;99763.50;5038083;28;20660;-64
2022/01/03 02:38:57;;;;;;;2.85;1.48;;;;;;;8.68;100.00;99748.66;5042170;28;20061;-63
2022/01/03 02:41:25;;;;;;;3.22;1.70;;;;;;;8.72;100.00;99749.31;5041297;28;20456;-64
2022/01/03 02:43:52;;;;;;;3.20;1.60;;;;;;;8.73;100.00;99751.00;5042534;28;20226;-63
2022/01/03 02:46:19;;;;;;;2.38;1.63;;;;;;;8.67;100.00;99751.41;5046103;28;20044;-63
2022/01/03 02:48:47;;;;;;;3.03;1.80;;;;;;;8.67;100.00;99746.16;5047425;28;20247;-63
2022/01/03 02:51:14;;;;;;;3.53;1.50;;;;;;;8.63;100.00;99740.25;5049476;28;20053;-63
2022/01/03 02:53:41;;;;;;;3.83;1.50;;;;;;;8.57;100.00;99744.13;5047084;28;20135;-63
2022/01/03 02:56:08;;;;;;;6.03;1.75;;;;;;;8.66;100.00;99741.84;5045190;28;20535;-63
2022/01/03 02:58:35;;;;;;;2.92;1.27;;;;;;;8.62;100.00;99726.31;5046721;28;20059;-63
2022/01/03 03:01:03;;;;;;;4.72;1.70;;;;;;;8.57;100.00;99736.25;5049155;28;20055;-62
2022/01/03 03:03:30;;;;;;;2.90;1.38;;;;;;;8.53;100.00;99728.69;5044718;28;20053;-62
2022/01/03 03:06:01;;;;;;;6.90;1.67;;;;;;;8.59;100.00;99728.28;5047310;28;20049;-63
2022/01/03 03:08:28;;;;;;;2.42;1.02;;;;;;;8.58;100.00;99714.31;5047668;28;20053;-63
2022/01/03 03:10:55;;;;;;;3.67;1.40;;;;;;;8.57;100.00;99714.44;5047426;28;20055;-62
2022/01/03 03:13:22;;;;;;;2.20;1.10;;;;;;;8.56;100.00;99708.34;5050104;28;20094;-63
2022/01/03 03:15:50;;;;;;;2.33;1.00;;;;;;;8.54;100.00;99697.09;5047337;28;20072;-62
2022/01/03 03:18:17;;;;;;;5.30;1.10;;;;;;;8.55;100.00;99711.06;5046054;28;20521;-63
2022/01/03 03:20:45;;;;;;;2.28;0.93;;;;;;;8.53;100.00;99698.03;5047371;28;20451;-64
2022/01/03 03:23:12;;;;;;;2.33;1.00;;;;;;;8.52;100.00;99680.63;5047104;28;20144;-62
2022/01/03 03:25:39;;;;;;;3.00;1.17;;;;;;;8.57;100.00;99678.53;5049355;28;20085;-62
2022/01/03 03:28:12;;;;;;;2.80;1.00;;;;;;;8.53;100.00;99689.34;5047616;28;20470;-62
2022/01/03 03:30:44;;;;;;;1.05;0.90;;;;;;;8.62;100.00;99668.59;5030449;28;20425;-63
2022/01/03 03:33:14;;;;;;;2.72;0.93;;;;;;;8.62;100.00;99691.38;5047203;28;20087;-63
2022/01/03 03:35:42;;;;;;;3.45;1.50;;;;;;;8.63;100.00;99683.38;5051157;28;20049;-62
2022/01/03 03:38:09;;;;;;;2.28;1.10;;;;;;;8.62;100.00;99691.38;5050668;28;20068;-63
2022/01/03 03:40:36;;;;;;;6.28;1.27;;;;;;;8.61;100.00;99669.53;5043770;28;20057;-63
2022/01/03 03:43:03;;;;;;;1.48;0.98;;;;;;;8.55;100.00;99662.06;5051720;28;20072;-63
2022/01/03 03:45:32;;;;;;;5.20;1.08;;;;;;;8.58;100.00;99664.47;5056118;28;20052;-63
2022/01/03 03:47:59;;;;;;;5.35;1.15;;;;;;;8.48;100.00;99663.41;5047264;28;20124;-63
2022/01/03 03:50:26;;;;;;;4.38;1.45;;;;;;;8.43;100.00;99662.03;5044400;28;20155;-63
2022/01/03 03:52:53;;;;;;;2.85;1.02;;;;;;;8.44;100.00;99651.44;5045140;28;20049;-63
2022/01/03 03:55:21;;;;;;;3.58;1.00;;;;;;;8.52;100.00;99666.69;5042790;28;21086;-63
2022/01/03 03:57:48;;;;;;;2.97;0.80;;;;;;;8.49;100.00;99667.72;5046374;28;20270;-63
2022/01/03 04:00:17;;;;;;;4.85;1.20;;;;;;;8.53;100.00;99653.44;5043472;28;20056;-63
2022/01/03 04:02:45;;;;;;;3.75;1.00;;;;;;;8.42;100.00;99671.69;5034146;28;20049;-64
2022/01/03 04:05:12;;;;;;;3.40;1.20;;;;;;;8.46;100.00;99664.44;5045844;28;20059;-64
2022/01/03 04:07:40;;;;;;;1.70;0.95;;;;;;;8.49;100.00;99659.84;5045548;28;20139;-64
2022/01/03 04:10:08;;;;;;;3.97;1.40;;;;;;;8.45;100.00;99679.34;5041519;28;20132;-63
2022/01/03 04:12:36;;;;;;;4.05;1.20;;;;;;;8.47;100.00;99672.22;5049052;28;20045;-63
2022/01/03 04:15:04;;;;;;;2.92;1.52;;;;;;;8.46;100.00;99674.94;5029784;28;20156;-63
2022/01/03 04:17:31;;;;;;;3.83;1.05;;;;;;;8.42;100.00;99662.97;5048799;28;20102;-63
2022/01/03 04:19:59;;;;;;;4.57;1.52;;;;;;;8.30;100.00;99685.56;5047000;28;20061;-63
2022/01/03 04:22:26;;;;;;;3.70;1.13;;;;;;;8.34;100.00;99676.56;5047910;28;20406;-63
2022/01/03 04:24:53;;;;;;;4.63;1.33;;;;;;;8.30;100.00;99677.69;5051061;28;20068;-63
2022/01/03 04:27:20;;;;;;;2.25;1.00;;;;;;;8.28;100.00;99669.91;5051253;28;20383;-63
2022/01/03 04:29:47;;;;;;;4.05;1.15;;;;;;;8.30;100.00;99672.44;5044020;28;20071;-63
2022/01/03 04:32:15;;;;;;;4.10;1.10;;;;;;;8.25;100.00;99703.38;5047686;28;20072;-63
2022/01/03 04:34:42;;;;;;;2.95;0.90;;;;;;;8.19;100.00;99688.84;5049914;28;20139;-63
2022/01/03 04:37:10;;;;;;;3.15;1.00;;;;;;;8.16;100.00;99688.22;5037715;28;20049;-63
2022/01/03 04:39:37;;;;;;;2.10;0.90;;;;;;;8.21;100.00;99689.59;5047779;28;20055;-63
2022/01/03 04:42:04;;;;;;;3.72;0.90;;;;;;;8.21;100.00;99717.63;5047663;28;20045;-63
2022/01/03 04:44:32;;;;;;;1.70;0.60;;;;;;;8.10;100.00;99713.03;5042274;28;20053;-63
2022/01/03 04:46:59;;;;;;;1.42;0.57;;;;;;;8.17;100.00;99703.00;5053308;28;20097;-63
2022/01/03 04:49:27;;;;;;;1.52;0.60;;;;;;;8.22;100.00;99745.50;5048099;28;20138;-63
2022/01/03 04:51:54;;;;;;;2.58;0.60;;;;;;;8.19;100.00;99714.22;5053697;28;20060;-63
2022/01/03 04:54:21;;;;;;;1.70;0.50;;;;;;;8.25;100.00;99719.09;5050397;28;20048;-63
2022/01/03 04:56:48;;;;;;;4.18;0.50;;;;;;;8.21;100.00;99720.25;5050696;28;21416;-63
2022/01/03 04:59:15;;;;;;;0.38;0.30;;;;;;;8.20;100.00;99737.75;5044752;28;20428;-63
2022/01/03 05:01:42;;;;;;;0.77;0.30;;;;;;;8.15;100.00;99729.34;5046901;28;20148;-64
2022/01/03 05:04:10;;;;;;;2.47;0.43;;;;;;;8.11;100.00;99756.69;5042353;28;20065;-63
2022/01/03 05:06:37;;;;;;;1.65;0.52;;;;;;;8.10;100.00;99744.50;5045113;28;20108;-63
2022/01/03 05:09:04;;;;;;;0.75;0.40;;;;;;;8.07;100.00;99732.44;5039236;28;20049;-63
2022/01/03 05:11:31;;;;;;;0.43;0.30;;;;;;;8.07;100.00;99744.69;5045202;28;20055;-64
2022/01/03 05:13:58;;;;;;;0.40;0.40;;;;;;;8.06;100.00;99762.22;5048484;28;20082;-64
2022/01/03 05:16:25;;;;;;;1.40;0.65;;;;;;;8.08;100.00;99757.69;5047149;28;20132;-63
2022/01/03 05:18:53;;;;;;;1.52;0.47;;;;;;;8.03;100.00;99770.25;5024836;28;20041;-63
2022/01/03 05:21:20;;;;;;;1.77;0.40;;;;;;;8.02;100.00;99754.63;5048458;28;20049;-64
2022/01/03 05:23:48;;;;;;;2.17;0.35;;;;;;;8.02;100.00;99778.22;5049189;28;20101;-63
2022/01/03 05:26:16;;;;;;;0.85;0.47;;;;;;;7.99;100.00;99805.44;5042685;28;20076;-64
2022/01/03 05:28:45;;;;;;;2.20;0.60;;;;;;;7.96;100.00;99831.84;5046245;28;20136;-64
2022/01/03 05:31:13;;;;;;;0.50;0.35;;;;;;;7.94;100.00;99827.63;5049413;28;20053;-63
2022/01/03 05:33:40;;;;;;;0.65;0.57;;;;;;;7.93;100.00;99790.13;5046423;28;20529;-63
2022/01/03 05:36:07;;;;;;;1.17;0.50;;;;;;;7.88;100.00;99797.41;5046439;28;20052;-63
2022/01/03 05:38:35;;;;;;;1.95;0.50;;;;;;;7.84;100.00;99802.00;5045896;28;20289;-63
2022/01/03 05:41:02;;;;;;;2.63;0.70;;;;;;;7.80;100.00;99797.03;5048089;28;20052;-64
2022/01/03 05:43:29;;;;;;;0.82;0.57;;;;;;;7.80;100.00;99812.75;5043389;28;20236;-63
2022/01/03 05:45:56;;;;;;;2.97;0.68;;;;;;;7.75;100.00;99831.38;5047996;28;20063;-64
2022/01/03 05:48:23;;;;;;;1.25;0.40;;;;;;;7.76;100.00;99824.34;5043712;28;20064;-64
2022/01/03 05:50:50;;;;;;;1.30;0.90;;;;;;;7.65;100.00;99824.13;5044403;28;20171;-64
2022/01/03 05:53:18;;;;;;;2.05;1.05;;;;;;;7.63;100.00;99831.25;5045385;28;20151;-64
2022/01/03 05:55:46;;;;;;;2.33;1.10;;;;;;;7.61;100.00;99849.69;5045572;28;20553;-64
2022/01/03 05:58:13;;;;;;;2.92;1.13;;;;;;;7.54;100.00;99843.13;5026734;28;20045;-64
2022/01/03 06:00:40;;;;;;;3.00;0.90;;;;;;;7.55;100.00;99839.56;5045195;28;20509;-64
2022/01/03 06:03:08;;;;;;;3.72;1.17;;;;;;;7.50;100.00;99850.31;5046673;28;20194;-64
2022/01/03 06:08:06;;;;;;;2.60;0.95;;;;;;;7.49;100.00;99845.16;5048420;28;20037;-64
2022/01/03 06:10:33;;;;;;;4.07;0.90;;;;;;;7.55;100.00;99874.44;5046637;28;20437;-64
2022/01/03 06:13:00;;;;;;;3.33;1.15;;;;;;;7.54;100.00;99859.66;5044589;28;20056;-64
2022/01/03 06:15:27;;;;;;;1.80;0.85;;;;;;;7.50;100.00;99873.03;5044817;28;20123;-64
2022/01/03 06:17:54;;;;;;;5.80;1.27;;;;;;;7.48;100.00;99872.31;5051745;28;20242;-64
2022/01/03 06:20:22;;;;;;;3.47;0.95;;;;;;;7.60;100.00;99884.66;5031875;28;20059;-63
2022/01/03 06:22:49;;;;;;;7.18;1.95;;;;;;;7.60;100.00;99892.50;5032619;28;20217;-63
2022/01/03 06:25:16;;;;;;;7.17;2.23;;;;;;;7.66;100.00;99878.25;5071702;22;20079;-58
2022/01/03 06:27:43;;;;;;;7.15;2.45;;;;;;;7.59;100.00;99882.97;5047603;28;21031;-60
2022/01/03 06:30:12;;;;;;;5.20;2.15;;;;;;;7.64;100.00;99885.31;5041687;28;20273;-57
2022/01/03 06:32:39;;;;;;;10.98;2.25;;;;;;;7.65;100.00;99900.09;5049414;28;20154;-59
2022/01/03 06:35:06;;;;;;;6.40;1.88;;;;;;;7.64;100.00;99891.41;5046134;28;20049;-55
2022/01/03 06:37:34;;;;;;;14.20;2.28;;;;;;;7.73;100.00;99906.59;5046494;28;20627;-60
2022/01/03 06:40:01;;;;;;;5.25;1.83;;;;;;;7.76;100.00;99906.41;5045445;28;20048;-59
2022/01/03 06:42:28;;;;;;;4.05;1.48;;;;;;;7.78;100.00;99908.94;5046618;28;20132;-59
2022/01/03 06:44:55;;;;;;;7.55;1.50;;;;;;;7.89;100.00;99914.41;5043089;28;20051;-60
2022/01/03 06:47:23;;;;;;;6.32;1.27;;;;;;;7.84;100.00;99921.69;5050061;28;20132;-58
2022/01/03 06:49:50;;;;;;;4.43;1.45;;;;;;;7.83;100.00;99925.22;5047564;28;20131;-57
2022/01/03 06:52:17;;;;;;;9.00;1.92;;;;;;;7.80;100.00;99933.28;5048365;28;20525;-57
2022/01/03 06:54:45;;;;;;;8.13;1.80;;;;;;;7.81;100.00;99935.81;5027668;28;20073;-61
2022/01/03 06:57:12;;;;;;;9.48;2.50;;;;;;;7.87;100.00;99926.72;5051354;28;20048;-61
2022/01/03 06:59:39;;;;;;;6.28;1.67;;;;;;;7.86;100.00;99933.75;5029228;28;20065;-58
2022/01/03 07:02:06;;;;;;;11.63;1.55;;;;;;;7.91;100.00;99941.34;5046461;28;20065;-59
2022/01/03 07:04:33;;;;;;;6.80;1.70;;;;;;;7.93;100.00;99943.91;5045654;28;20088;-60
2022/01/03 07:07:04;;;;;;;9.40;1.55;;;;;;;7.91;100.00;99956.22;5050767;28;20446;-62
2022/01/03 07:09:32;;;;;;;10.85;1.45;;;;;;;7.94;100.00;99954.28;5046790;28;20053;-58
2022/01/03 07:11:59;;;;;;;10.90;2.30;;;;;;;8.00;100.00;99955.69;5046788;28;20128;-61
2022/01/03 07:19:45;;;;;;;5.70;1.27;;;;;;;7.99;100.00;99962.72;5040657;28;20095;-59
2022/01/03 07:22:12;;;;;;;10.45;1.90;;;;;;;8.03;100.00;99969.47;5056399;28;20132;-59
2022/01/03 07:24:40;;;;;;;7.20;1.50;;;;;;;8.02;100.00;99974.81;5049649;28;20052;-60
2022/01/03 07:27:10;;;;;;;11.73;2.20;;;;;;;8.06;100.00;99974.53;5054299;28;20143;-60
2022/01/03 07:29:38;;;;;;;6.88;1.60;;;;;;;8.08;100.00;99971.81;5048919;28;20146;-59
2022/01/03 07:32:05;;;;;;;15.32;2.03;;;;;;;8.12;100.00;99973.31;5053864;28;20067;-60
2022/01/03 07:34:32;;;;;;;10.13;1.77;;;;;;;8.18;100.00;99974.72;5040630;28;20055;-59
2022/01/03 07:37:00;;;;;;;8.32;1.73;;;;;;;8.13;100.00;99967.13;5046296;28;20088;-59
2022/01/03 07:39:30;;;;;;;10.02;2.00;;;;;;;8.15;100.00;99990.63;5046246;28;20051;-60
2022/01/03 07:41:58;;;;;;;9.43;1.98;;;;;;;8.21;100.00;99974.56;5049681;28;20052;-60
2022/01/03 07:44:25;;;;;;;7.32;1.65;;;;;;;8.24;100.00;99976.97;5045099;28;20132;-61
2022/01/03 07:46:54;;;;;;;15.57;2.08;;;;;;;8.31;100.00;99986.19;5040555;28;20052;-60
2022/01/03 07:49:21;;;;;;;9.88;2.08;;;;;;;8.31;100.00;99984.41;5046103;28;20074;-61
2022/01/03 07:51:49;;;;;;;10.13;2.17;;;;;;;8.39;100.00;99994.47;5050252;28;20052;-59
2022/01/03 07:54:16;;;;;;;12.73;2.13;;;;;;;8.36;100.00;99992.00;5042722;28;20054;-58
2022/01/03 07:56:43;;;;;;;12.00;2.10;;;;;;;8.40;100.00;99995.31;5047781;28;20051;-59
2022/01/03 07:59:11;;;;;;;8.63;1.67;;;;;;;8.35;100.00;99990.31;5044387;28;20135;-60
2022/01/03 08:01:40;;;;;;;10.27;1.67;;;;;;;8.44;100.00;99999.44;5050501;28;20135;-61
2022/01/03 08:04:08;;;;;;;8.00;1.60;;;;;;;8.44;100.00;100002.06;5045757;28;20144;-60
2022/01/03 08:06:45;;;;;;;9.50;1.90;;;;;;;8.39;100.00;99998.88;5047140;28;20124;-59
2022/01/03 08:09:12;;;;;;;8.48;1.60;;;;;;;8.36;100.00;100005.97;5045831;28;20460;-61
2022/01/03 08:11:40;;;;;;;9.55;1.90;;;;;;;8.40;100.00;100006.66;5052789;28;20080;-59
2022/01/03 08:14:07;;;;;;;14.57;2.40;;;;;;;8.43;100.00;100011.72;5044831;28;20404;-62
2022/01/03 08:16:34;;;;;;;11.95;1.85;;;;;;;8.46;100.00;100008.06;5050533;28;20147;-60
2022/01/03 08:19:02;;;;;;;9.00;1.85;;;;;;;8.54;100.00;100004.03;5043296;28;20080;-60
2022/01/03 08:21:29;;;;;;;9.63;2.03;;;;;;;8.56;100.00;100010.03;5045314;28;20380;-61
2022/01/03 08:23:56;;;;;;;13.48;2.45;;;;;;;8.49;100.00;100015.75;5033069;28;20073;-60
2022/01/03 08:26:24;;;;;;;8.15;2.00;;;;;;;8.45;100.00;100012.47;5048003;28;20053;-60
2022/01/03 08:28:51;;;;;;;11.10;1.92;;;;;;;8.35;100.00;100014.75;5048436;28;20452;-60
2022/01/03 08:31:18;;;;;;;10.80;1.83;;;;;;;8.48;100.00;100012.28;5045756;28;20079;-59
2022/01/03 08:33:46;;;;;;;11.30;2.13;;;;;;;8.43;100.00;100011.72;5028241;28;20411;-61
2022/01/03 08:36:13;;;;;;;12.50;1.90;;;;;;;8.42;100.00;100007.41;5046917;28;20156;-60
2022/01/03 08:38:40;;;;;;;13.15;2.10;;;;;;;8.35;100.00;100006.88;5045107;28;20049;-61
2022/01/03 08:41:07;;;;;;;10.60;1.80;;;;;;;8.39;100.00;100015.47;5045929;28;22400;-61
2022/01/03 08:43:34;;;;;;;15.90;2.35;;;;;;;8.39;100.00;100009.38;5046494;28;20063;-59
2022/01/03 08:46:01;;;;;;;9.60;2.10;;;;;;;8.40;100.00;100011.88;5047509;28;20103;-61
2022/01/03 08:48:29;;;;;;;12.80;2.25;;;;;;;8.48;100.00;100014.06;5044973;28;20090;-61
2022/01/03 08:50:56;;;;;;;11.43;2.47;;;;;;;8.58;100.00;100018.66;5051751;28;20059;-60
2022/01/03 08:53:26;;;;;;;10.05;2.55;;;;;;;8.57;100.00;100003.84;5045218;28;20060;-60
2022/01/03 08:55:54;;;;;;;19.85;2.95;;;;;;;8.56;100.00;100028.41;5044587;28;20230;-60
2022/01/03 08:58:23;;;;;;;12.68;2.25;;;;;;;8.69;100.00;100014.53;5045878;28;20045;-60
2022/01/03 09:00:50;;;;;;;10.93;2.13;;;;;;;8.80;100.00;100014.72;5049765;28;20128;-57
2022/01/03 09:03:18;;;;;;;14.77;3.15;;;;;;;8.91;100.00;100014.91;5044806;28;20536;-60
2022/01/03 09:05:45;;;;;;;14.20;2.22;;;;;;;9.03;100.00;100011.53;5046298;28;20057;-60
2022/01/03 09:08:13;;;;;;;15.15;2.35;;;;;;;9.01;100.00;100020.47;5029603;28;20159;-60
2022/01/03 09:10:40;;;;;;;15.27;2.13;;;;;;;9.09;100.00;100012.91;5044820;28;20128;-61
2022/01/03 09:13:07;;;;;;;9.23;2.00;;;;;;;9.19;100.00;100016.69;5043410;28;20106;-58
2022/01/03 09:15:37;;;;;;;16.90;2.85;;;;;;;9.31;100.00;100022.91;5044730;28;20076;-59
2022/01/03 09:18:10;;;;;;;8.25;2.15;;;;;;;9.22;100.00;100026.13;5047104;28;20049;-60
2022/01/03 09:20:37;;;;;;;14.07;2.55;;;;;;;9.19;99.68;100018.47;5046129;28;20551;-59
2022/01/03 09:23:11;;;;;;;16.70;2.88;;;;;;;9.10;100.00;100030.38;5048298;28;20071;-58
2022/01/03 09:30:55;;;;;;;11.07;2.15;;;;;;;8.99;100.00;100022.31;5043481;28;20131;-59
2022/01/03 09:33:22;;;;;;;19.00;3.25;;;;;;;9.10;100.00;100031.22;5043407;28;20144;-60
2022/01/03 09:35:51;;;;;;;18.48;2.90;;;;;;;9.23;100.00;100035.69;5047258;28;20068;-60
2022/01/03 09:38:22;;;;;;;15.00;3.97;;;;;;;9.10;100.00;100033.84;5046661;28;20128;-59
2022/01/03 09:40:52;;;;;;;17.63;3.40;;;;;;;9.11;100.00;100034.69;5046651;28;20127;-60
2022/01/03 09:43:20;;;;;;;13.02;2.45;;;;;;;9.12;99.92;100034.59;5042957;28;20055;-60
2022/01/03 09:45:48;;;;;;;12.60;2.50;;;;;;;9.33;99.13;100028.94;5023729;28;20063;-60
2022/01/03 09:48:16;;;;;;;10.02;2.45;;;;;;;9.35;98.10;100027.88;5047338;28;20132;-61
2022/01/03 09:50:44;;;;;;;15.85;2.58;;;;;;;9.44;97.39;100021.19;5054131;28;20373;-59
2022/01/03 09:53:11;;;;;;;10.95;2.55;;;;;;;9.50;96.89;100019.97;5050509;28;20578;-59
2022/01/03 09:55:40;;;;;;;18.38;3.33;;;;;;;9.56;95.24;100024.84;5030768;28;20055;-60
2022/01/03 09:58:07;;;;;;;11.25;2.88;;;;;;;9.78;94.99;100032.19;5031369;28;20469;-60
2022/01/03 10:00:34;;;;;;;12.48;2.75;;;;;;;9.77;94.02;100022.59;5046781;28;20057;-59
2022/01/03 10:03:01;;;;;;;10.23;2.35;;;;;;;9.66;93.46;100030.34;5048977;28;20049;-58
2022/01/03 10:05:29;;;;;;;6.45;2.22;;;;;;;9.81;94.32;100047.75;5049606;28;20061;-58
2022/01/03 10:07:56;;;;;;;11.55;2.30;;;;;;;9.47;92.97;100030.69;5049580;28;20131;-59
2022/01/03 10:10:25;;;;;;;14.32;2.90;;;;;;;9.25;95.09;100039.91;5029699;28;21143;-59
2022/01/03 10:12:52;;;;;;;15.38;2.80;;;;;;;9.25;95.52;100031.19;5049465;28;20059;-59
2022/01/03 10:15:20;;;;;;;15.23;2.42;;;;;;;9.24;95.53;100035.59;5045496;28;20081;-59
2022/01/03 10:17:47;;;;;;;11.70;3.03;;;;;;;9.16;97.02;100031.78;5051305;28;20036;-60
2022/01/03 10:20:16;;;;;;;11.07;2.53;;;;;;;9.09;97.84;100037.38;5048456;28;20049;-59
2022/01/03 10:22:43;;;;;;;15.07;3.28;;;;;;;9.34;97.70;100012.22;5049586;28;20064;-60
2022/01/03 10:25:15;;;;;;;13.32;2.95;;;;;;;9.53;95.68;100017.97;5046966;28;20049;-59
2022/01/03 10:27:59;;;;;;;10.10;2.60;;;;;;;9.65;94.66;100019.00;5032327;28;20055;-58
2022/01/03 10:30:43;;;;;;;21.70;3.67;;;;;;;9.80;93.37;100025.03;5045068;28;20041;-59
2022/01/03 10:33:14;;;;;;;15.60;2.40;;;;;;;9.90;93.50;100024.31;5047699;28;20053;-58
2022/01/03 10:35:44;;;;;;;11.05;2.42;;;;;;;9.97;92.61;100016.88;5048926;28;20055;-58
2022/01/03 10:38:29;;;;;;;16.30;3.00;;;;;;;10.17;92.09;100020.81;5013365;28;20052;-58
2022/01/03 10:41:21;;;;;;;18.20;3.40;;;;;;;10.23;91.69;100024.84;5028598;28;20052;-59
2022/01/03 10:43:53;;;;;;;20.55;3.60;;;;;;;10.75;87.80;100029.19;5044044;28;20076;-60
2022/01/03 10:46:29;;;;;;;14.68;2.65;;;;;;;10.81;86.97;100020.91;5048761;28;20049;-59
2022/01/03 10:49:11;;;;;;;9.57;2.78;;;;;;;10.89;87.38;100029.06;5047782;28;20049;-58
2022/01/03 10:51:39;;;;;;;15.88;3.70;;;;;;;10.82;87.19;100022.56;5046340;28;20053;-59
2022/01/03 10:54:09;;;;;;;16.42;3.15;;;;;;;10.93;86.13;100020.03;5020460;28;20084;-60
2022/01/03 10:56:39;;;;;;;18.75;3.42;;;;;;;10.75;85.90;100027.41;5034787;28;20052;-60
2022/01/03 10:59:15;;;;;;;21.80;5.07;;;;;;;10.37;88.02;100023.00;5030530;28;20785;-59
2022/01/03 11:01:44;;;;;;;18.30;3.20;;;;;;;10.31;88.49;100027.81;5050131;28;20145;-59
2022/01/03 11:04:24;;;;;;;12.68;2.88;;;;;;;10.13;88.96;100012.31;5047866;28;20124;-59
2022/01/03 11:13:15;;;;;;;11.38;3.10;;;;;;;10.11;87.91;100016.81;5048824;28;20127;-59
2022/01/03 11:15:51;;;;;;;15.18;3.33;;;;;;;10.12;87.71;100015.84;5050299;28;20147;-59
2022/01/03 11:18:24;;;;;;;15.95;3.45;;;;;;;10.22;87.34;100018.75;5050316;28;20067;-59
2022/01/03 11:21:03;;;;;;;9.93;3.10;;;;;;;10.04;89.17;100014.69;5041568;28;20122;-58
2022/01/03 11:23:31;;;;;;;20.35;4.28;;;;;;;10.09;91.50;100012.59;5043436;28;20141;-59
2022/01/03 11:26:07;;;;;;;13.95;3.50;;;;;;;9.96;89.12;99996.78;5022010;28;20422;-56
2022/01/03 11:28:35;;;;;;;14.68;3.10;;;;;;;10.00;90.20;99998.28;5040705;28;20084;-61
2022/01/03 11:31:03;;;;;;;19.65;4.18;;;;;;;9.93;90.03;99990.91;5049654;28;20526;-58
2022/01/03 11:33:30;;;;;;;19.42;3.60;;;;;;;9.82;89.84;99991.63;5044314;28;20053;-56
2022/01/03 11:36:20;;;;;;;13.15;3.92;;;;;;;9.82;88.37;99989.00;5045980;28;20569;-58
2022/01/03 11:38:48;;;;;;;16.75;4.18;;;;;;;9.96;87.61;99980.19;5042396;28;20045;-58
2022/01/03 11:41:16;;;;;;;15.55;3.42;;;;;;;10.04;87.01;99977.84;5053886;28;20140;-60
2022/01/03 11:43:44;;;;;;;16.95;3.97;;;;;;;10.22;87.64;99976.66;5048782;28;20075;-59
2022/01/03 11:46:11;;;;;;;16.83;4.32;;;;;;;10.30;85.42;99969.09;5050087;28;20413;-60
2022/01/03 11:48:38;;;;;;;15.23;3.63;;;;;;;10.47;85.16;99967.09;5050145;28;20505;-59
2022/01/03 11:51:12;;;;;;;16.73;4.15;;;;;;;10.58;84.59;99967.19;5053215;28;20045;-58
2022/01/03 11:53:45;;;;;;;17.67;3.70;;;;;;;10.67;83.83;99970.97;5052879;28;20162;-58
2022/01/03 11:56:20;;;;;;;21.70;3.97;;;;;;;10.56;84.13;99966.47;5049427;28;20543;-59
2022/01/03 11:58:59;;;;;;;21.92;3.40;;;;;;;10.92;82.20;99954.31;5047660;28;20057;-61